createdAt,value
2019-03-22T00:01:15.137Z,93.22
2019-03-22T00:03:45.949Z,92.37
2019-03-22T00:06:16.825Z,93.37
2019-03-22T00:08:47.628Z,90.57
2019-03-22T00:11:18.462Z,93.25
2019-03-22T00:13:49.203Z,93.50
2019-03-22T00:16:20.007Z,89.80
2019-03-22T00:18:51.739Z,91.47
2019-03-22T00:21:22.611Z,88.62
2019-03-22T00:23:53.372Z,89.25
2019-03-22T00:26:25.194Z,87.72
2019-03-22T00:28:56.068Z,89.35
2019-03-22T00:31:29.093Z,87.35
2019-03-22T00:34:01.257Z,87.37
2019-03-22T00:36:32.111Z,83.17
2019-03-22T00:39:02.951Z,85.62
2019-03-22T00:41:34.863Z,83.82
2019-03-22T00:44:06.334Z,83.00
2019-03-22T00:46:37.137Z,81.57
2019-03-22T00:49:07.922Z,81.22
2019-03-22T00:51:39.785Z,81.75
2019-03-22T00:54:10.563Z,79.35
2019-03-22T00:56:42.328Z,79.22
2019-03-22T00:59:13.222Z,77.50
2019-03-22T01:01:44.021Z,77.35
2019-03-22T01:04:14.770Z,73.78
2019-03-22T01:06:45.528Z,75.32
2019-03-22T01:09:16.342Z,75.15
2019-03-22T01:11:47.182Z,73.22
2019-03-22T01:14:17.910Z,71.30
2019-03-22T01:16:48.685Z,71.53
2019-03-22T01:19:19.504Z,69.62
2019-03-22T01:21:50.318Z,68.33
2019-03-22T01:24:21.114Z,70.17
2019-03-22T01:26:51.910Z,68.35
2019-03-22T01:29:22.676Z,67.95
2019-03-22T01:31:53.639Z,66.72
2019-03-22T01:34:24.374Z,66.15
2019-03-22T01:36:55.207Z,64.87
2019-03-22T01:39:28.457Z,62.78
2019-03-22T01:41:59.509Z,64.40
2019-03-22T01:44:33.917Z,62.17
2019-03-22T01:47:04.621Z,64.00
2019-03-22T01:49:35.432Z,63.60
2019-03-22T01:52:06.228Z,60.28
2019-03-22T01:54:37.069Z,59.20
2019-03-22T01:57:07.831Z,57.85
2019-03-22T01:59:38.749Z,60.20
2019-03-22T02:02:09.509Z,58.45
2019-03-22T02:04:40.377Z,57.55
2019-03-22T02:07:11.143Z,56.55
2019-03-22T02:09:42.924Z,56.37
2019-03-22T02:12:13.676Z,55.45
2019-03-22T02:14:44.614Z,54.73
2019-03-22T02:17:15.434Z,54.03
2019-03-22T02:19:46.203Z,55.25
2019-03-22T02:22:17.001Z,53.85
2019-03-22T02:24:48.832Z,54.00
2019-03-22T02:27:19.617Z,51.77
2019-03-22T02:29:50.375Z,53.65
2019-03-22T02:32:21.153Z,54.23
2019-03-22T02:34:52.014Z,49.30
2019-03-22T02:37:22.774Z,49.10
2019-03-22T02:39:53.580Z,50.48
2019-03-22T02:42:24.340Z,47.75
2019-03-22T02:44:55.258Z,48.05
2019-03-22T02:47:26.029Z,48.30
2019-03-22T02:49:56.807Z,49.93
2019-03-22T02:52:27.550Z,48.20
2019-03-22T02:54:58.460Z,45.10
2019-03-22T02:57:29.395Z,46.00
2019-03-22T03:00:00.451Z,45.10
2019-03-22T03:02:31.356Z,45.12
2019-03-22T03:05:02.761Z,44.40
2019-03-22T03:07:33.630Z,43.52
2019-03-22T03:10:04.883Z,43.20
2019-03-22T03:12:36.891Z,43.73
2019-03-22T03:15:08.693Z,43.95
2019-03-22T03:17:39.558Z,42.55
2019-03-22T03:20:12.070Z,42.40
2019-03-22T03:22:42.863Z,40.67
2019-03-22T03:25:13.761Z,41.50
2019-03-22T03:27:44.549Z,40.15
2019-03-22T03:30:16.295Z,39.85
2019-03-22T03:32:47.063Z,39.05
2019-03-22T03:35:17.905Z,38.53
2019-03-22T03:37:48.753Z,37.38
2019-03-22T03:40:19.575Z,37.28
2019-03-22T03:42:51.469Z,36.33
2019-03-22T03:45:35.315Z,36.08
2019-03-22T03:48:07.575Z,37.10
2019-03-22T03:50:38.348Z,32.63
2019-03-22T03:53:09.197Z,34.05
2019-03-22T03:55:40.001Z,34.83
2019-03-22T03:58:10.927Z,34.78
2019-03-22T04:00:41.703Z,110.48
2019-03-22T04:03:12.556Z,74.60
2019-03-22T04:05:43.394Z,72.62
2019-03-22T04:08:14.240Z,66.42
2019-03-22T04:10:45.022Z,65.65
2019-03-22T04:13:15.878Z,72.25
2019-03-22T04:15:47.761Z,75.87
2019-03-22T04:18:18.546Z,67.25
2019-03-22T04:20:52.283Z,62.50
2019-03-22T04:23:23.096Z,61.35
2019-03-22T04:25:53.880Z,61.53
2019-03-22T04:28:24.677Z,62.55
2019-03-22T04:30:55.466Z,61.85
2019-03-22T04:33:26.289Z,64.03
2019-03-22T04:35:57.123Z,62.13
2019-03-22T04:38:27.959Z,63.23
2019-03-22T04:40:58.848Z,62.75
2019-03-22T04:43:29.616Z,62.67
2019-03-22T04:46:00.732Z,65.08
2019-03-22T04:48:32.618Z,60.08
2019-03-22T04:51:03.493Z,62.48
2019-03-22T04:53:38.274Z,60.70
2019-03-22T04:56:11.560Z,62.27
2019-03-22T04:58:42.593Z,60.63
2019-03-22T05:01:13.350Z,60.12
2019-03-22T05:03:44.113Z,63.23
2019-03-22T05:06:14.860Z,59.88
2019-03-22T05:08:45.777Z,61.35
2019-03-22T05:11:16.549Z,61.58
2019-03-22T05:13:48.073Z,61.20
2019-03-22T05:16:18.922Z,55.58
2019-03-22T05:18:50.196Z,59.45
2019-03-22T05:21:21.239Z,60.03
2019-03-22T05:23:52.353Z,60.20
2019-03-22T05:26:23.235Z,61.30
2019-03-22T05:28:54.045Z,61.35
2019-03-22T05:32:02.535Z,58.52
2019-03-22T05:34:33.322Z,57.70
2019-03-22T05:37:05.264Z,57.35
2019-03-22T05:39:36.749Z,56.45
2019-03-22T05:42:08.300Z,54.98
2019-03-22T05:44:39.257Z,53.08
2019-03-22T05:47:10.051Z,54.42
2019-03-22T05:49:40.908Z,51.65
2019-03-22T05:52:11.759Z,53.13
2019-03-22T05:54:42.578Z,52.53
2019-03-22T05:57:15.013Z,51.95
2019-03-22T05:59:45.828Z,51.13
2019-03-22T06:02:16.646Z,49.80
2019-03-22T06:04:47.478Z,49.90
2019-03-22T06:07:18.325Z,50.73
2019-03-22T06:09:49.139Z,46.10
2019-03-22T06:12:19.879Z,48.35
2019-03-22T06:14:52.256Z,47.60
2019-03-22T06:17:24.001Z,50.00
2019-03-22T06:19:56.056Z,49.58
2019-03-22T06:22:26.835Z,46.42
2019-03-22T06:24:57.675Z,44.42
2019-03-22T06:27:28.477Z,44.40
2019-03-22T06:29:59.554Z,45.83
2019-03-22T06:32:30.406Z,45.12
2019-03-22T06:35:06.906Z,43.28
2019-03-22T06:37:38.428Z,45.35
2019-03-22T06:40:11.705Z,46.92
2019-03-22T06:42:42.484Z,46.55
2019-03-22T06:45:13.619Z,50.05
2019-03-22T06:47:45.341Z,48.45
2019-03-22T06:50:16.416Z,48.40
2019-03-22T06:52:47.297Z,45.90
2019-03-22T06:55:18.232Z,49.30
2019-03-22T06:57:48.993Z,46.28
2019-03-22T07:00:19.767Z,43.52
2019-03-22T07:02:50.556Z,44.58
2019-03-22T07:05:21.376Z,44.73
2019-03-22T07:07:52.185Z,42.33
2019-03-22T07:10:22.984Z,42.55
2019-03-22T07:12:53.744Z,42.08
2019-03-22T07:15:25.397Z,41.13
2019-03-22T07:17:56.226Z,42.25
2019-03-22T07:20:26.050Z,40.80
2019-03-22T07:22:57.309Z,39.83
2019-03-22T07:25:28.207Z,40.48
2019-03-22T07:27:59.084Z,39.78
2019-03-22T07:30:31.119Z,39.63
2019-03-22T07:33:01.950Z,37.85
2019-03-22T07:35:32.750Z,39.33
2019-03-22T07:38:03.482Z,36.68
2019-03-22T07:40:34.283Z,37.33
2019-03-22T07:43:05.094Z,37.63
2019-03-22T07:45:35.875Z,36.35
2019-03-22T07:48:06.765Z,36.63
2019-03-22T07:50:37.533Z,37.03
2019-03-22T07:53:08.353Z,35.92
2019-03-22T07:55:39.236Z,35.08
2019-03-22T07:58:10.103Z,34.67
2019-03-22T08:00:40.998Z,34.95
2019-03-22T08:03:11.837Z,34.45
2019-03-22T08:05:51.000Z,34.73
2019-03-22T08:08:15.572Z,33.80
2019-03-22T08:10:46.445Z,32.00
2019-03-22T08:13:17.224Z,33.55
2019-03-22T08:15:48.117Z,32.70
2019-03-22T08:18:19.466Z,31.17
2019-03-22T08:20:50.321Z,31.05
2019-03-22T08:23:24.154Z,32.48
2019-03-22T08:25:56.066Z,32.48
2019-03-22T08:28:27.002Z,31.95
2019-03-22T08:30:57.774Z,31.23
2019-03-22T08:33:28.695Z,31.52
2019-03-22T08:35:59.550Z,29.92
2019-03-22T08:38:30.419Z,29.57
2019-03-22T08:41:01.206Z,30.62
2019-03-22T08:43:32.116Z,29.57
2019-03-22T08:46:02.907Z,29.85
2019-03-22T08:48:33.784Z,30.35
2019-03-22T08:51:04.608Z,29.57
2019-03-22T08:53:35.414Z,27.62
2019-03-22T08:56:06.602Z,29.37
2019-03-22T08:58:37.615Z,28.83
2019-03-22T09:01:08.527Z,28.73
2019-03-22T09:03:39.279Z,27.95
2019-03-22T09:06:10.175Z,27.75
2019-03-22T09:08:41.602Z,27.82
2019-03-22T09:11:12.429Z,28.25
2019-03-22T09:13:43.840Z,26.85
2019-03-22T09:16:14.648Z,26.62
2019-03-22T09:18:45.524Z,26.30
2019-03-22T09:21:17.191Z,27.02
2019-03-22T09:23:49.714Z,27.13
2019-03-22T09:26:20.515Z,25.35
2019-03-22T09:28:51.403Z,25.10
2019-03-22T09:31:22.237Z,26.07
2019-03-22T09:33:54.179Z,25.85
2019-03-22T09:36:24.892Z,24.75
2019-03-22T09:38:55.736Z,24.25
2019-03-22T09:41:26.519Z,25.27
2019-03-22T09:43:59.946Z,27.00
2019-03-22T09:46:29.870Z,25.12
2019-03-22T09:49:00.721Z,24.10
2019-03-22T09:51:32.583Z,23.85
2019-03-22T09:54:03.456Z,23.62
2019-03-22T09:56:46.301Z,23.38
2019-03-22T09:59:06.856Z,23.75
2019-03-22T10:01:37.646Z,24.00
2019-03-22T10:04:08.458Z,23.02
2019-03-22T10:06:39.708Z,22.50
2019-03-22T10:09:10.599Z,22.55
2019-03-22T10:11:41.499Z,22.37
2019-03-22T10:14:12.316Z,22.87
2019-03-22T10:16:43.185Z,21.62
2019-03-22T10:19:14.022Z,22.25
2019-03-22T10:21:44.887Z,21.77
2019-03-22T10:24:15.786Z,21.33
2019-03-22T10:26:46.887Z,21.33
2019-03-22T10:29:17.682Z,21.48
2019-03-22T10:31:48.849Z,21.90
2019-03-22T10:34:19.716Z,21.37
2019-03-22T10:36:50.559Z,20.95
2019-03-22T10:39:22.946Z,20.32
2019-03-22T10:41:53.854Z,19.65
2019-03-22T10:44:24.638Z,20.70
2019-03-22T10:46:55.455Z,20.75
2019-03-22T10:49:26.658Z,19.82
2019-03-22T10:51:58.267Z,19.73
2019-03-22T10:54:31.891Z,19.48
2019-03-22T10:57:02.841Z,19.10
2019-03-22T10:59:33.645Z,19.23
2019-03-22T11:02:07.567Z,19.95
2019-03-22T11:04:37.437Z,19.42
2019-03-22T11:07:08.186Z,19.45
2019-03-22T11:09:39.023Z,19.17
2019-03-22T11:12:12.447Z,19.45
2019-03-22T11:14:42.367Z,17.80
2019-03-22T11:17:13.166Z,17.70
2019-03-22T11:19:44.008Z,17.20
2019-03-22T11:22:14.802Z,17.05
2019-03-22T11:24:45.577Z,18.12
2019-03-22T11:27:16.299Z,18.25
2019-03-22T11:29:48.073Z,17.50
2019-03-22T11:32:18.960Z,16.87
2019-03-22T11:34:49.728Z,17.57
2019-03-22T11:37:20.491Z,16.45
2019-03-22T11:39:51.331Z,16.67
2019-03-22T11:42:23.615Z,16.23
2019-03-22T11:44:54.408Z,16.15
2019-03-22T11:47:25.182Z,16.45
2019-03-22T11:49:56.467Z,16.12
2019-03-22T11:52:27.295Z,16.60
2019-03-22T11:54:58.192Z,16.52
2019-03-22T11:57:30.404Z,16.02
2019-03-22T12:00:01.614Z,15.98
2019-03-22T12:02:32.490Z,14.70
2019-03-22T12:05:03.350Z,16.05
2019-03-22T12:07:37.100Z,15.50
2019-03-22T12:10:08.208Z,15.23
2019-03-22T12:12:39.041Z,14.95
2019-03-22T12:15:10.104Z,15.08
2019-03-22T12:17:40.968Z,14.55
2019-03-22T12:20:11.997Z,14.85
2019-03-22T12:22:42.986Z,14.63
2019-03-22T12:25:14.058Z,14.45
2019-03-22T12:27:45.300Z,14.30
2019-03-22T12:30:16.647Z,13.95
2019-03-22T12:32:48.990Z,15.03
2019-03-22T12:35:19.900Z,14.28
2019-03-22T12:37:50.717Z,13.85
2019-03-22T12:40:21.846Z,14.13
2019-03-22T12:42:52.692Z,13.45
2019-03-22T12:45:24.941Z,13.58
2019-03-22T12:47:55.707Z,13.20
2019-03-22T12:50:26.534Z,14.30
2019-03-22T12:52:57.424Z,13.80
2019-03-22T12:55:28.208Z,13.72
2019-03-22T12:57:59.650Z,13.65
2019-03-22T13:00:30.398Z,13.58
2019-03-22T13:03:01.234Z,13.48
2019-03-22T13:05:32.036Z,13.78
2019-03-22T13:08:02.987Z,12.73
2019-03-22T13:10:34.075Z,12.75
2019-03-22T13:13:05.019Z,12.88
2019-03-22T13:15:36.845Z,12.10
2019-03-22T13:18:07.830Z,12.15
2019-03-22T13:20:38.693Z,13.10
2019-03-22T13:23:09.551Z,12.75
2019-03-22T13:25:40.383Z,12.43
2019-03-22T13:28:11.152Z,12.90
2019-03-22T13:30:41.991Z,12.43
2019-03-22T13:33:12.807Z,11.78
2019-03-22T13:35:43.684Z,12.47
2019-03-22T13:38:14.414Z,11.68
2019-03-22T13:40:45.212Z,12.30
2019-03-22T13:43:15.968Z,11.48
2019-03-22T13:45:47.357Z,11.83
2019-03-22T13:48:18.116Z,11.20
2019-03-22T13:50:49.120Z,12.45
2019-03-22T13:53:19.928Z,11.28
2019-03-22T13:55:50.720Z,11.95
2019-03-22T13:58:22.233Z,10.75
2019-03-22T14:00:53.103Z,12.00
2019-03-22T14:03:25.711Z,11.78
2019-03-22T14:05:56.660Z,11.53
2019-03-22T14:08:28.580Z,11.28
2019-03-22T14:10:59.478Z,12.30
2019-03-22T14:13:30.436Z,11.43
2019-03-22T14:16:01.298Z,10.93
2019-03-22T14:18:32.604Z,10.88
2019-03-22T14:21:03.457Z,11.38
2019-03-22T14:23:34.214Z,11.08
2019-03-22T14:26:05.012Z,10.10
2019-03-22T14:28:35.713Z,11.18
2019-03-22T14:31:09.451Z,10.35
2019-03-22T14:33:40.182Z,10.50
2019-03-22T14:36:11.082Z,10.23
2019-03-22T14:38:44.185Z,10.63
2019-03-22T14:41:14.564Z,9.63
2019-03-22T14:43:48.083Z,8.98
2019-03-22T14:46:18.902Z,7.53
2019-03-22T14:48:49.728Z,9.03
2019-03-22T14:51:20.563Z,13.25
2019-03-22T14:53:51.457Z,13.85
2019-03-22T14:56:22.281Z,12.03
2019-03-22T14:58:54.095Z,12.03
2019-03-22T15:01:24.859Z,10.58
2019-03-22T15:03:55.647Z,11.53
2019-03-22T15:06:26.483Z,9.93
2019-03-22T15:08:57.347Z,11.93
2019-03-22T15:11:28.110Z,10.28
2019-03-22T15:14:04.426Z,11.05
2019-03-22T15:17:09.350Z,10.45
2019-03-22T15:20:08.067Z,10.88
2019-03-22T15:22:51.221Z,10.32
2019-03-22T15:25:39.797Z,10.53
2019-03-22T15:28:28.054Z,9.48
2019-03-22T15:31:26.847Z,9.58
2019-03-22T15:34:25.657Z,10.23
2019-03-22T15:37:21.558Z,9.68
2019-03-22T15:40:00.649Z,10.00
2019-03-22T15:42:34.373Z,10.50
2019-03-22T15:45:07.423Z,18.73
2019-03-22T15:47:39.771Z,16.50
2019-03-22T15:50:12.947Z,14.40
2019-03-22T15:52:44.053Z,14.33
2019-03-22T15:55:14.840Z,14.53
2019-03-22T15:57:45.695Z,15.00
2019-03-22T16:00:18.027Z,15.03
2019-03-22T16:02:48.970Z,13.80
2019-03-22T16:05:19.822Z,14.13
2019-03-22T16:07:50.669Z,14.07
2019-03-22T16:10:21.548Z,14.55
2019-03-22T16:12:52.407Z,14.35
2019-03-22T16:15:24.548Z,14.35
2019-03-22T16:17:57.061Z,14.28
2019-03-22T16:20:27.930Z,13.88
2019-03-22T16:22:59.063Z,13.85
2019-03-22T16:25:29.883Z,13.80
2019-03-22T16:28:00.963Z,15.80
2019-03-22T16:30:36.716Z,12.85
2019-03-22T16:33:10.058Z,13.65
2019-03-22T16:35:40.908Z,13.22
2019-03-22T16:38:12.051Z,14.68
2019-03-22T16:40:45.659Z,13.58
2019-03-22T16:43:16.548Z,12.68
2019-03-22T16:45:48.554Z,13.30
2019-03-22T16:48:19.341Z,13.00
2019-03-22T16:50:50.127Z,14.18
2019-03-22T16:53:22.498Z,13.28
2019-03-22T16:55:53.315Z,13.22
2019-03-22T16:58:24.131Z,12.33
2019-03-22T17:00:54.906Z,12.23
2019-03-22T17:03:25.693Z,12.33
2019-03-22T17:05:56.523Z,13.18
2019-03-22T17:08:27.268Z,13.28
2019-03-22T17:10:58.084Z,13.53
2019-03-22T17:13:28.866Z,13.00
2019-03-22T17:16:02.050Z,11.80
2019-03-22T17:18:33.959Z,11.83
2019-03-22T17:21:04.713Z,12.80
2019-03-22T17:23:35.578Z,11.95
2019-03-22T17:26:06.411Z,12.82
2019-03-22T17:28:37.172Z,12.68
2019-03-22T17:31:08.002Z,12.60
2019-03-22T17:33:39.290Z,12.23
2019-03-22T17:36:10.127Z,12.03
2019-03-22T17:38:40.933Z,12.50
2019-03-22T17:41:11.723Z,11.97
2019-03-22T17:43:42.489Z,11.70
2019-03-22T17:46:13.348Z,13.05
2019-03-22T17:48:44.077Z,12.18
2019-03-22T17:51:15.816Z,11.43
2019-03-22T17:53:46.699Z,12.30
2019-03-22T17:56:17.574Z,11.60
2019-03-22T17:58:48.480Z,12.43
2019-03-22T18:01:19.480Z,12.00
2019-03-22T18:03:51.404Z,11.30
2019-03-22T18:06:24.025Z,11.97
2019-03-22T18:08:54.779Z,11.78
2019-03-22T18:11:25.561Z,11.90
2019-03-22T18:13:56.345Z,11.78
2019-03-22T18:16:27.139Z,11.85
2019-03-22T18:18:57.966Z,11.48
2019-03-22T18:21:28.776Z,11.85
2019-03-22T18:23:59.607Z,11.03
2019-03-22T18:26:30.463Z,13.15
2019-03-22T18:29:01.385Z,10.75
2019-03-22T18:31:33.336Z,12.07
2019-03-22T18:34:04.180Z,11.30
2019-03-22T18:36:35.052Z,11.35
2019-03-22T18:39:08.537Z,10.98
2019-03-22T18:41:39.395Z,11.60
2019-03-22T18:44:10.247Z,11.70
2019-03-22T18:46:41.006Z,11.63
2019-03-22T18:49:11.835Z,11.05
2019-03-22T18:51:42.876Z,11.10
2019-03-22T18:54:14.778Z,11.08
2019-03-22T18:56:45.592Z,11.38
2019-03-22T18:59:20.949Z,10.60
2019-03-22T19:01:51.710Z,10.95
2019-03-22T19:04:22.619Z,10.72
2019-03-22T19:06:53.409Z,14.05
2019-03-22T19:09:24.406Z,15.15
2019-03-22T19:11:55.549Z,15.20
2019-03-22T19:14:26.393Z,14.83
2019-03-22T19:16:57.541Z,14.78
2019-03-22T19:19:28.812Z,15.23
2019-03-22T19:21:59.615Z,15.50
2019-03-22T19:24:30.516Z,16.82
2019-03-22T19:27:01.334Z,16.17
2019-03-22T19:29:32.105Z,15.65
2019-03-22T19:32:13.240Z,16.55
2019-03-22T19:34:36.527Z,16.73
2019-03-22T19:37:07.386Z,17.25
2019-03-22T19:39:39.961Z,20.68
2019-03-22T19:42:10.734Z,32.23
2019-03-22T19:44:41.705Z,29.87
2019-03-22T19:47:12.451Z,33.65
2019-03-22T19:49:43.251Z,35.55
2019-03-22T19:52:14.112Z,32.40
2019-03-22T19:54:44.948Z,33.95
2019-03-22T19:57:15.778Z,38.08
2019-03-22T19:59:48.110Z,36.42
2019-03-22T20:02:18.971Z,46.80
2019-03-22T20:04:49.779Z,54.98
2019-03-22T20:07:26.765Z,55.52
2019-03-22T20:09:53.526Z,60.52
2019-03-22T20:12:24.370Z,59.05
2019-03-22T20:14:58.200Z,63.52
2019-03-22T20:17:29.889Z,68.02
2019-03-22T20:20:03.103Z,67.78
2019-03-22T20:22:39.154Z,68.37
2019-03-22T20:25:10.370Z,65.22
2019-03-22T20:27:41.314Z,65.28
2019-03-22T20:30:15.784Z,63.00
2019-03-22T20:32:47.781Z,65.47
2019-03-22T20:35:18.653Z,64.27
2019-03-22T20:37:49.547Z,66.20
2019-03-22T20:40:20.458Z,67.32
2019-03-22T20:42:51.335Z,65.50
2019-03-22T20:45:24.468Z,72.22
2019-03-22T20:47:54.956Z,69.05
2019-03-22T20:50:35.350Z,68.35
2019-03-22T20:53:00.617Z,68.67
2019-03-22T20:55:33.145Z,68.97
2019-03-22T20:58:04.622Z,87.78
2019-03-22T21:00:39.521Z,93.92
2019-03-22T21:03:10.759Z,109.78
2019-03-22T21:05:47.021Z,111.17
2019-03-22T21:08:18.217Z,107.87
2019-03-22T21:10:50.159Z,105.30
2019-03-22T21:13:21.052Z,103.67
2019-03-22T21:15:51.870Z,98.27
2019-03-22T21:18:23.375Z,100.38
2019-03-22T21:20:54.759Z,98.67
2019-03-22T21:23:35.958Z,93.25
2019-03-22T21:26:02.776Z,93.82
2019-03-22T21:28:34.619Z,88.97
2019-03-22T21:31:05.466Z,92.90
2019-03-22T21:33:36.986Z,87.95
2019-03-22T21:36:07.913Z,87.02
2019-03-22T21:38:39.077Z,86.97
2019-03-22T21:41:09.888Z,92.25
2019-03-22T21:43:40.731Z,102.92
2019-03-22T21:46:14.596Z,102.12
2019-03-22T21:48:48.303Z,104.92
2019-03-22T21:51:19.378Z,109.80
2019-03-22T21:53:50.224Z,109.70
2019-03-22T21:56:21.153Z,110.95
2019-03-22T21:58:52.022Z,109.42
2019-03-22T22:01:22.797Z,109.60
2019-03-22T22:03:53.617Z,108.50
2019-03-22T22:06:24.439Z,110.45
2019-03-22T22:08:55.212Z,103.83
2019-03-22T22:11:26.148Z,100.90
2019-03-22T22:13:56.966Z,102.10
2019-03-22T22:16:28.589Z,100.55
2019-03-22T22:18:59.364Z,100.95
2019-03-22T22:21:30.200Z,99.90
2019-03-22T22:24:01.043Z,97.02
2019-03-22T22:26:31.954Z,96.72
2019-03-22T22:29:02.831Z,96.92
2019-03-22T22:31:33.825Z,102.25
2019-03-22T22:34:05.075Z,93.82
2019-03-22T22:36:39.257Z,92.12
2019-03-22T22:39:11.106Z,91.87
2019-03-22T22:41:42.076Z,90.20
2019-03-22T22:44:12.833Z,91.78
2019-03-22T22:46:43.670Z,91.60
2019-03-22T22:49:14.477Z,91.08
2019-03-22T22:51:45.307Z,88.33
2019-03-22T22:54:16.199Z,88.25
2019-03-22T22:56:46.974Z,88.97
2019-03-22T22:59:17.873Z,85.17
2019-03-22T23:01:48.756Z,85.12
2019-03-22T23:04:19.604Z,85.00
2019-03-22T23:06:50.472Z,82.17
2019-03-22T23:09:21.282Z,83.55
2019-03-22T23:11:52.171Z,80.90
2019-03-22T23:14:24.555Z,84.58
2019-03-22T23:16:55.395Z,81.17
2019-03-22T23:19:26.205Z,81.63
2019-03-22T23:21:57.145Z,79.32
2019-03-22T23:24:30.674Z,78.47
2019-03-22T23:27:02.626Z,74.10
2019-03-22T23:29:33.465Z,77.62
2019-03-22T23:32:04.302Z,74.87
2019-03-22T23:34:35.138Z,75.72
2019-03-22T23:37:07.158Z,72.70
2019-03-22T23:39:38.265Z,72.97
2019-03-22T23:42:09.188Z,72.82
2019-03-22T23:44:40.046Z,71.53
2019-03-22T23:47:10.885Z,69.62
2019-03-22T23:49:41.686Z,71.05
2019-03-22T23:52:12.469Z,69.77
2019-03-22T23:54:46.081Z,68.10
2019-03-22T23:57:16.944Z,68.37
2019-03-22T23:59:47.715Z,69.05
